Time;durP1;ratioP1;P1;durP2;ratioP2;P2;SDS_P1;SDS_P2;PMS_P1;PMS_P2;Temp;Humidity;BMP_temperature;BMP_pressure;BME280_temperature;BME280_humidity;BME280_pressure;Samples;Min_cycle;Max_cycle;Signal;HPM_P1;HPM_P2
2021/06/13 00:02:21;;;;;;;11.80;4.07;;;;;;;;;;5026539;28;20029;-67
2021/06/13 00:04:46;;;;;;;8.83;3.90;;;;;;;;;;5026545;28;20631;-66
2021/06/13 00:07:11;;;;;;;10.70;4.15;;;;;;;;;;5028982;28;20287;-66
2021/06/13 00:09:36;;;;;;;15.32;4.40;;;;;;;;;;5029484;28;20034;-66
2021/06/13 00:12:02;;;;;;;17.08;4.57;;;;;;;;;;5029524;28;20398;-67
2021/06/13 00:14:27;;;;;;;18.10;4.22;;;;;;;;;;5030652;28;20360;-68
2021/06/13 00:16:52;;;;;;;18.40;4.73;;;;;;;;;;5027788;28;20037;-65
2021/06/13 00:19:18;;;;;;;12.15;4.20;;;;;;;;;;5028762;28;20292;-65
2021/06/13 00:21:43;;;;;;;16.60;4.65;;;;;;;;;;5029403;28;20030;-64
2021/06/13 00:24:09;;;;;;;18.60;5.37;;;;;;;;;;5029571;28;20034;-66
2021/06/13 00:26:34;;;;;;;8.00;4.43;;;;;;;;;;5029709;28;20269;-65
2021/06/13 00:28:59;;;;;;;13.85;5.15;;;;;;;;;;5030783;28;20108;-64
2021/06/13 00:31:25;;;;;;;13.27;5.03;;;;;;;;;;5033407;28;20511;-66
2021/06/13 00:33:50;;;;;;;25.43;5.10;;;;;;;;;;5032111;28;20288;-65
2021/06/13 00:36:16;;;;;;;10.55;4.72;;;;;;;;;;5032501;28;20630;-65
2021/06/13 00:38:41;;;;;;;13.52;4.93;;;;;;;;;;5033167;28;20024;-65
2021/06/13 00:41:07;;;;;;;8.55;4.57;;;;;;;;;;5033102;28;20111;-65
2021/06/13 00:43:33;;;;;;;22.55;5.63;;;;;;;;;;5033184;28;20034;-67
2021/06/13 00:45:58;;;;;;;14.23;5.60;;;;;;;;;;5031471;28;20036;-65
2021/06/13 00:48:23;;;;;;;15.43;5.20;;;;;;;;;;5033270;28;20268;-66
2021/06/13 00:50:50;;;;;;;12.50;5.37;;;;;;;;;;5033503;28;20366;-64
2021/06/13 00:53:16;;;;;;;18.23;5.22;;;;;;;;;;5027778;28;20596;-66
2021/06/13 00:55:41;;;;;;;12.93;6.05;;;;;;;;;;5033644;28;20088;-66
2021/06/13 00:58:08;;;;;;;10.07;5.13;;;;;;;;;;5030500;28;20034;-65
2021/06/13 01:00:34;;;;;;;10.75;4.72;;;;;;;;;;5032530;28;20196;-66
2021/06/13 01:03:00;;;;;;;19.05;5.82;;;;;;;;;;5031907;28;20048;-66
2021/06/13 01:05:26;;;;;;;16.10;5.47;;;;;;;;;;5032641;28;20543;-66
2021/06/13 01:07:56;;;;;;;13.05;4.88;;;;;;;;;;5032842;28;20388;-66
2021/06/13 01:10:21;;;;;;;;;;;;;;;;;;5031667;28;20399;-66
2021/06/13 01:12:50;;;;;;;13.77;5.78;;;;;;;;;;5032864;28;19970;-65
2021/06/13 01:15:18;;;;;;;9.85;5.13;;;;;;;;;;5031307;28;20078;-66
2021/06/13 01:17:43;;;;;;;13.50;5.40;;;;;;;;;;5032719;28;20092;-66
2021/06/13 01:20:16;;;;;;;13.82;5.20;;;;;;;;;;5031770;28;20136;-66
2021/06/13 01:22:53;;;;;;;11.90;4.82;;;;;;;;;;5031775;28;20025;-66
2021/06/13 01:25:34;;;;;;;14.02;5.90;;;;;;;;;;5031648;28;20140;-66
2021/06/13 01:28:04;;;;;;;9.55;4.78;;;;;;;;;;5029279;28;20013;-66
2021/06/13 01:30:32;;;;;;;16.45;5.60;;;;;;;;;;5032092;28;20035;-66
2021/06/13 01:32:58;;;;;;;14.70;5.55;;;;;;;;;;5031456;28;20022;-66
2021/06/13 01:35:25;;;;;;;14.32;5.32;;;;;;;;;;5031862;28;20064;-66
2021/06/13 01:37:51;;;;;;;18.23;6.05;;;;;;;;;;5029853;28;20013;-66
2021/06/13 01:40:18;;;;;;;12.18;5.57;;;;;;;;;;5031677;28;20499;-66
2021/06/13 01:42:46;;;;;;;27.00;7.63;;;;;;;;;;5029684;28;20506;-66
2021/06/13 01:45:13;;;;;;;17.50;6.20;;;;;;;;;;5030119;28;20475;-66
2021/06/13 01:47:39;;;;;;;17.55;6.38;;;;;;;;;;5031595;28;20064;-66
2021/06/13 01:50:05;;;;;;;13.93;5.85;;;;;;;;;;5031618;28;20208;-66
2021/06/13 01:52:31;;;;;;;14.02;6.00;;;;;;;;;;5031872;28;20052;-66
2021/06/13 01:54:57;;;;;;;17.98;6.30;;;;;;;;;;5031804;28;20394;-66
2021/06/13 01:57:23;;;;;;;15.60;6.05;;;;;;;;;;5031170;28;20021;-66
2021/06/13 01:59:48;;;;;;;19.50;6.60;;;;;;;;;;5027194;28;20029;-66
2021/06/13 02:02:14;;;;;;;11.25;5.80;;;;;;;;;;5031305;28;20371;-66
2021/06/13 02:04:40;;;;;;;18.30;5.38;;;;;;;;;;5026383;28;20390;-66
2021/06/13 02:07:05;;;;;;;14.07;6.03;;;;;;;;;;5031117;28;20037;-66
2021/06/13 02:09:31;;;;;;;21.52;6.68;;;;;;;;;;5029814;28;20472;-66
2021/06/13 02:11:58;;;;;;;19.08;6.30;;;;;;;;;;5031147;28;20472;-66
2021/06/13 02:14:24;;;;;;;13.15;6.30;;;;;;;;;;5031199;28;20037;-66
2021/06/13 02:16:50;;;;;;;16.85;5.50;;;;;;;;;;5031198;28;20072;-66
2021/06/13 02:19:23;;;;;;;13.43;6.20;;;;;;;;;;5030806;28;20095;-66
2021/06/13 02:21:54;;;;;;;15.02;7.65;;;;;;;;;;5030739;28;20035;-65
2021/06/13 02:24:19;;;;;;;11.43;5.50;;;;;;;;;;5031256;28;20053;-66
2021/06/13 02:26:45;;;;;;;12.75;5.35;;;;;;;;;;5030990;28;20061;-66
2021/06/13 02:29:12;;;;;;;15.02;5.70;;;;;;;;;;5030551;28;20083;-66
2021/06/13 02:31:39;;;;;;;16.83;5.50;;;;;;;;;;5031208;28;20036;-66
2021/06/13 02:34:06;;;;;;;24.45;6.43;;;;;;;;;;5029327;28;20243;-66
2021/06/13 02:36:32;;;;;;;15.18;5.95;;;;;;;;;;5029593;28;20112;-66
2021/06/13 02:38:57;;;;;;;15.65;6.38;;;;;;;;;;5029299;28;20109;-66
2021/06/13 02:41:23;;;;;;;16.42;8.60;;;;;;;;;;5031164;28;20479;-66
2021/06/13 02:43:48;;;;;;;18.85;8.27;;;;;;;;;;5029108;28;20538;-66
2021/06/13 02:46:14;;;;;;;17.85;5.45;;;;;;;;;;5030647;28;20037;-66
2021/06/13 02:48:39;;;;;;;18.38;5.32;;;;;;;;;;5030464;28;20033;-66
2021/06/13 02:51:04;;;;;;;18.27;7.05;;;;;;;;;;5030299;28;20032;-65
2021/06/13 02:53:42;;;;;;;11.52;5.97;;;;;;;;;;5029565;28;20029;-66
2021/06/13 02:56:16;;;;;;;15.57;6.88;;;;;;;;;;5030254;28;20036;-66
2021/06/13 02:58:49;;;;;;;12.70;5.75;;;;;;;;;;5030229;28;20018;-66
2021/06/13 03:01:17;;;;;;;13.75;6.10;;;;;;;;;;5030257;28;20113;-66
2021/06/13 03:03:43;;;;;;;17.10;7.22;;;;;;;;;;5030363;28;20022;-66
2021/06/13 03:06:10;;;;;;;15.13;6.80;;;;;;;;;;5030504;28;20033;-66
2021/06/13 03:08:35;;;;;;;16.85;6.60;;;;;;;;;;5029883;28;20028;-66
2021/06/13 03:11:01;;;;;;;15.57;6.70;;;;;;;;;;5030718;28;20113;-66
2021/06/13 03:13:26;;;;;;;22.20;7.05;;;;;;;;;;5030479;28;20065;-66
2021/06/13 03:15:52;;;;;;;14.00;7.00;;;;;;;;;;5030496;28;20483;-66
2021/06/13 03:18:18;;;;;;;17.50;7.10;;;;;;;;;;5028293;28;20075;-66
2021/06/13 03:20:43;;;;;;;21.33;7.50;;;;;;;;;;5030286;28;20534;-65
2021/06/13 03:23:09;;;;;;;21.60;7.07;;;;;;;;;;5030100;28;20057;-65
2021/06/13 03:25:35;;;;;;;19.08;6.68;;;;;;;;;;5029770;28;20109;-66
2021/06/13 03:28:01;;;;;;;23.45;7.30;;;;;;;;;;5029121;28;20014;-66
2021/06/13 03:30:26;;;;;;;14.13;6.13;;;;;;;;;;5030488;28;20122;-66
2021/06/13 03:32:52;;;;;;;18.17;6.25;;;;;;;;;;5030096;28;20515;-66
2021/06/13 03:35:18;;;;;;;17.33;6.15;;;;;;;;;;5029861;28;20108;-66
2021/06/13 03:37:43;;;;;;;20.75;7.35;;;;;;;;;;5029923;28;20373;-66
2021/06/13 03:40:09;;;;;;;11.15;6.18;;;;;;;;;;5029569;28;20037;-66
2021/06/13 03:42:35;;;;;;;13.65;6.50;;;;;;;;;;5029480;28;20034;-66
2021/06/13 03:45:00;;;;;;;13.13;6.75;;;;;;;;;;5029692;28;20050;-66
2021/06/13 03:47:26;;;;;;;14.07;6.78;;;;;;;;;;5029601;28;20065;-66
2021/06/13 03:49:52;;;;;;;15.77;5.97;;;;;;;;;;5029738;28;20021;-66
2021/06/13 03:52:17;;;;;;;17.38;6.50;;;;;;;;;;5029413;28;20033;-66
2021/06/13 03:54:43;;;;;;;12.02;6.22;;;;;;;;;;5029966;28;20022;-66
2021/06/13 03:57:09;;;;;;;10.10;5.68;;;;;;;;;;5027383;28;20061;-66
2021/06/13 03:59:35;;;;;;;16.45;6.10;;;;;;;;;;5026520;28;20383;-66
2021/06/13 04:02:01;;;;;;;13.85;6.30;;;;;;;;;;5029428;28;20108;-65
2021/06/13 04:04:27;;;;;;;15.27;6.57;;;;;;;;;;5036552;28;20136;-66
2021/06/13 04:06:53;;;;;;;12.65;6.50;;;;;;;;;;5036394;28;20476;-66
2021/06/13 04:09:18;;;;;;;12.73;7.18;;;;;;;;;;5035840;28;20566;-66
2021/06/13 04:11:44;;;;;;;12.70;6.25;;;;;;;;;;5036370;28;20021;-66
2021/06/13 04:14:10;;;;;;;21.65;7.20;;;;;;;;;;5036149;28;20033;-66
2021/06/13 04:16:35;;;;;;;12.82;6.07;;;;;;;;;;5034683;28;20032;-66
2021/06/13 04:19:01;;;;;;;16.58;6.95;;;;;;;;;;5035666;28;20025;-66
2021/06/13 04:21:27;;;;;;;16.92;7.28;;;;;;;;;;5036128;28;20025;-66
2021/06/13 04:23:53;;;;;;;16.88;6.60;;;;;;;;;;5035860;28;20009;-66
2021/06/13 04:26:20;;;;;;;12.68;6.63;;;;;;;;;;5034299;28;20017;-66
2021/06/13 04:28:47;;;;;;;19.38;6.55;;;;;;;;;;5035851;28;20021;-66
2021/06/13 04:31:13;;;;;;;18.27;7.55;;;;;;;;;;5035397;28;20037;-66
2021/06/13 04:33:40;;;;;;;15.43;7.03;;;;;;;;;;5030842;28;20088;-66
2021/06/13 04:36:05;;;;;;;20.92;7.28;;;;;;;;;;5035841;28;20029;-66
2021/06/13 04:38:30;;;;;;;20.75;8.27;;;;;;;;;;5035017;28;20014;-66
2021/06/13 04:40:56;;;;;;;22.97;7.97;;;;;;;;;;5035902;28;20053;-66
2021/06/13 04:43:21;;;;;;;21.63;8.70;;;;;;;;;;5029097;28;20786;-66
2021/06/13 04:45:46;;;;;;;16.80;7.80;;;;;;;;;;5035930;28;20036;-66
2021/06/13 04:48:12;;;;;;;33.08;8.90;;;;;;;;;;5035727;28;21019;-66
2021/06/13 04:50:38;;;;;;;19.17;8.32;;;;;;;;;;5033801;28;20056;-66
2021/06/13 04:53:13;;;;;;;18.40;8.18;;;;;;;;;;5035465;28;20604;-66
2021/06/13 04:55:42;;;;;;;22.83;8.60;;;;;;;;;;5035915;28;20029;-66
2021/06/13 04:58:22;;;;;;;22.98;8.55;;;;;;;;;;5032750;28;20071;-66
2021/06/13 05:00:47;;;;;;;23.55;8.85;;;;;;;;;;5032537;28;20029;-66
2021/06/13 05:03:13;;;;;;;19.13;7.93;;;;;;;;;;5035232;28;20409;-65
2021/06/13 05:05:38;;;;;;;20.98;7.75;;;;;;;;;;5035850;28;20276;-66
2021/06/13 05:08:03;;;;;;;21.25;7.38;;;;;;;;;;5034545;28;20021;-66
2021/06/13 05:10:29;;;;;;;35.88;8.65;;;;;;;;;;5034523;28;20030;-66
2021/06/13 05:12:54;;;;;;;21.17;7.63;;;;;;;;;;5031537;28;20369;-66
2021/06/13 05:15:21;;;;;;;19.30;8.30;;;;;;;;;;5032530;28;20287;-66
2021/06/13 05:17:46;;;;;;;16.80;7.45;;;;;;;;;;5031740;28;20028;-66
2021/06/13 05:20:11;;;;;;;16.75;7.50;;;;;;;;;;5031985;28;20021;-66
2021/06/13 05:22:49;;;;;;;22.70;8.32;;;;;;;;;;5030994;28;20017;-66
2021/06/13 05:25:15;;;;;;;13.90;7.25;;;;;;;;;;5031686;28;20049;-66
2021/06/13 05:27:40;;;;;;;22.47;7.60;;;;;;;;;;5027279;28;20072;-66
2021/06/13 05:30:05;;;;;;;21.88;9.25;;;;;;;;;;5032461;28;20627;-66
2021/06/13 05:32:30;;;;;;;22.42;6.68;;;;;;;;;;5031901;28;20507;-66
2021/06/13 05:34:56;;;;;;;21.17;7.77;;;;;;;;;;5031774;28;20029;-66
2021/06/13 05:37:21;;;;;;;24.53;8.03;;;;;;;;;;5031735;28;20326;-66
2021/06/13 05:39:46;;;;;;;15.83;7.17;;;;;;;;;;5024271;28;20276;-66
2021/06/13 05:42:11;;;;;;;21.17;6.50;;;;;;;;;;5028702;28;20334;-66
2021/06/13 05:44:36;;;;;;;18.75;7.40;;;;;;;;;;5030493;28;20355;-66
2021/06/13 05:47:01;;;;;;;15.37;6.97;;;;;;;;;;5029802;28;20124;-66
2021/06/13 05:49:27;;;;;;;22.75;7.00;;;;;;;;;;5028150;28;20276;-66
2021/06/13 05:51:52;;;;;;;18.57;6.13;;;;;;;;;;5030599;28;20021;-66
2021/06/13 05:54:17;;;;;;;17.10;6.07;;;;;;;;;;5029385;28;20330;-66
2021/06/13 05:56:42;;;;;;;21.03;6.07;;;;;;;;;;5029562;28;20740;-66
2021/06/13 05:59:07;;;;;;;19.70;5.93;;;;;;;;;;5028908;28;20309;-66
2021/06/13 06:01:32;;;;;;;16.60;5.00;;;;;;;;;;5030432;28;20275;-66
2021/06/13 06:03:58;;;;;;;15.80;6.27;;;;;;;;;;5020264;28;20311;-66
2021/06/13 06:06:23;;;;;;;12.27;4.82;;;;;;;;;;5019790;28;20268;-66
2021/06/13 06:08:48;;;;;;;22.47;6.23;;;;;;;;;;5030155;28;20032;-66
2021/06/13 06:11:13;;;;;;;19.63;5.32;;;;;;;;;;5030502;28;20375;-66
2021/06/13 06:13:39;;;;;;;18.77;4.78;;;;;;;;;;5029653;28;20108;-66
2021/06/13 06:16:04;;;;;;;18.13;5.10;;;;;;;;;;5084161;23;20044;-65
2021/06/13 06:18:29;;;;;;;19.02;6.07;;;;;;;;;;5061884;28;20294;-65
2021/06/13 06:20:54;;;;;;;15.20;4.68;;;;;;;;;;5061892;28;20058;-65
2021/06/13 06:23:19;;;;;;;16.13;4.57;;;;;;;;;;5069021;28;20732;-65
2021/06/13 06:25:45;;;;;;;18.87;4.80;;;;;;;;;;5069399;28;20029;-64
2021/06/13 06:28:10;;;;;;;16.13;4.50;;;;;;;;;;5042051;28;20268;-63
2021/06/13 06:30:37;;;;;;;16.80;4.28;;;;;;;;;;5029475;28;20614;-65
2021/06/13 06:33:02;;;;;;;14.65;5.00;;;;;;;;;;5039549;28;20422;-62
2021/06/13 06:35:27;;;;;;;12.05;3.50;;;;;;;;;;5043325;28;20028;-64
2021/06/13 06:37:53;;;;;;;15.13;4.80;;;;;;;;;;5028961;28;20037;-63
2021/06/13 06:40:18;;;;;;;10.77;3.45;;;;;;;;;;5029562;28;20410;-66
2021/06/13 06:42:43;;;;;;;19.73;4.03;;;;;;;;;;5029543;28;20028;-66
2021/06/13 06:45:10;;;;;;;10.38;4.32;;;;;;;;;;5046128;28;20630;-65
2021/06/13 06:47:36;;;;;;;11.52;4.35;;;;;;;;;;5047671;28;20051;-68
2021/06/13 06:50:01;;;;;;;10.18;4.00;;;;;;;;;;5048812;28;20478;-67
2021/06/13 06:52:26;;;;;;;13.40;4.55;;;;;;;;;;5044904;28;20024;-65
2021/06/13 06:54:52;;;;;;;16.50;4.22;;;;;;;;;;5042645;28;20035;-69
2021/06/13 06:57:17;;;;;;;16.15;3.90;;;;;;;;;;5045729;28;20035;-64
2021/06/13 06:59:43;;;;;;;15.73;4.35;;;;;;;;;;5044095;28;20013;-67
2021/06/13 07:02:08;;;;;;;15.50;4.55;;;;;;;;;;5048455;28;20064;-67
2021/06/13 07:04:33;;;;;;;25.55;4.63;;;;;;;;;;5050068;28;20881;-65
2021/06/13 07:06:58;;;;;;;15.13;4.10;;;;;;;;;;5043752;28;20043;-69
2021/06/13 07:09:24;;;;;;;11.98;4.00;;;;;;;;;;5047233;28;20271;-67
2021/06/13 07:11:49;;;;;;;14.40;4.22;;;;;;;;;;5046243;28;20080;-64
2021/06/13 07:14:14;;;;;;;16.60;3.90;;;;;;;;;;5046871;28;20489;-64
2021/06/13 07:16:39;;;;;;;14.17;4.87;;;;;;;;;;5044198;28;20055;-64
2021/06/13 07:19:04;;;;;;;12.93;4.43;;;;;;;;;;5046086;28;20264;-64
2021/06/13 07:21:29;;;;;;;16.42;4.60;;;;;;;;;;5045859;28;20388;-66
2021/06/13 07:23:55;;;;;;;16.88;4.05;;;;;;;;;;5044969;28;20407;-69
2021/06/13 07:26:20;;;;;;;13.90;4.10;;;;;;;;;;5047201;28;20043;-64
2021/06/13 07:28:45;;;;;;;14.38;3.53;;;;;;;;;;5044514;28;20765;-68
2021/06/13 07:31:10;;;;;;;7.47;3.27;;;;;;;;;;5046872;28;20584;-64
2021/06/13 07:33:35;;;;;;;12.27;4.10;;;;;;;;;;5048821;28;20275;-65
2021/06/13 07:36:01;;;;;;;9.40;3.63;;;;;;;;;;5046802;28;20024;-64
2021/06/13 07:38:26;;;;;;;9.15;3.88;;;;;;;;;;5043847;28;21661;-69
2021/06/13 07:40:52;;;;;;;13.90;4.20;;;;;;;;;;5045091;28;20013;-64
2021/06/13 07:43:17;;;;;;;13.98;4.88;;;;;;;;;;5045254;28;20021;-65
2021/06/13 07:45:42;;;;;;;12.43;4.30;;;;;;;;;;5036184;28;20097;-67
2021/06/13 07:48:08;;;;;;;19.17;5.60;;;;;;;;;;5043563;28;20020;-65
2021/06/13 07:50:33;;;;;;;11.73;3.97;;;;;;;;;;5049451;28;20009;-66
2021/06/13 07:52:59;;;;;;;14.45;3.88;;;;;;;;;;5047021;28;20044;-64
2021/06/13 07:55:25;;;;;;;11.98;4.07;;;;;;;;;;5048216;28;20025;-66
2021/06/13 07:57:50;;;;;;;13.73;3.85;;;;;;;;;;5047082;28;20029;-63
2021/06/13 08:00:18;;;;;;;13.38;4.18;;;;;;;;;;5048424;28;20510;-63
2021/06/13 08:02:43;;;;;;;11.48;3.92;;;;;;;;;;5046900;28;20530;-63
2021/06/13 08:05:10;;;;;;;9.02;3.42;;;;;;;;;;5046715;28;20043;-65
2021/06/13 08:07:36;;;;;;;16.48;4.88;;;;;;;;;;5046124;28;20147;-66
2021/06/13 08:10:02;;;;;;;11.88;4.13;;;;;;;;;;5043966;28;20121;-63
2021/06/13 08:12:27;;;;;;;13.68;4.03;;;;;;;;;;5042704;28;20098;-66
2021/06/13 08:14:53;;;;;;;9.88;3.60;;;;;;;;;;5037682;28;68417;-64
2021/06/13 08:17:19;;;;;;;12.20;3.45;;;;;;;;;;5036062;28;20017;-66
2021/06/13 08:19:44;;;;;;;10.10;3.20;;;;;;;;;;5047222;28;20039;-64
2021/06/13 08:22:11;;;;;;;8.97;4.03;;;;;;;;;;5047309;28;20041;-64
2021/06/13 08:24:36;;;;;;;12.18;3.75;;;;;;;;;;5038524;28;20287;-65
2021/06/13 08:27:01;;;;;;;9.57;3.42;;;;;;;;;;5045630;28;20017;-66
2021/06/13 08:29:26;;;;;;;17.35;5.18;;;;;;;;;;5047473;28;20080;-64
2021/06/13 08:31:52;;;;;;;19.80;4.27;;;;;;;;;;5045304;28;20110;-65
2021/06/13 08:34:18;;;;;;;15.05;3.60;;;;;;;;;;5044977;28;20761;-66
2021/06/13 08:36:43;;;;;;;11.45;3.08;;;;;;;;;;5047117;28;20025;-65
2021/06/13 08:39:09;;;;;;;9.40;3.92;;;;;;;;;;5046834;28;20037;-65
2021/06/13 08:41:34;;;;;;;13.93;4.30;;;;;;;;;;5046889;28;20025;-65
2021/06/13 08:43:59;;;;;;;13.52;4.57;;;;;;;;;;5047251;28;20486;-66
2021/06/13 08:46:25;;;;;;;18.08;4.35;;;;;;;;;;5049689;28;20048;-65
2021/06/13 08:48:51;;;;;;;12.27;3.80;;;;;;;;;;5033097;28;20118;-65
2021/06/13 08:51:16;;;;;;;10.18;4.20;;;;;;;;;;5051311;28;20044;-66
2021/06/13 08:53:44;;;;;;;18.02;3.90;;;;;;;;;;5049462;28;20021;-65
2021/06/13 08:56:19;;;;;;;10.23;3.35;;;;;;;;;;5047624;28;20025;-67
2021/06/13 08:58:45;;;;;;;11.77;3.92;;;;;;;;;;5042364;28;20376;-67
2021/06/13 09:01:13;;;;;;;14.50;4.63;;;;;;;;;;5044016;28;20027;-67
2021/06/13 09:03:38;;;;;;;13.10;4.03;;;;;;;;;;5044799;28;20099;-67
2021/06/13 09:06:03;;;;;;;10.10;3.80;;;;;;;;;;5049560;28;20131;-67
2021/06/13 09:08:33;;;;;;;12.38;4.55;;;;;;;;;;5052065;28;20028;-67
2021/06/13 09:10:58;;;;;;;12.88;4.93;;;;;;;;;;5047110;28;20013;-66
2021/06/13 09:13:25;;;;;;;17.73;5.35;;;;;;;;;;5050358;28;20029;-67
2021/06/13 09:15:58;;;;;;;12.52;4.40;;;;;;;;;;5052045;28;20059;-67
2021/06/13 09:18:27;;;;;;;12.02;3.70;;;;;;;;;;5046666;28;20499;-66
2021/06/13 09:20:53;;;;;;;17.13;5.07;;;;;;;;;;5050476;28;20025;-67
2021/06/13 09:23:18;;;;;;;8.88;4.00;;;;;;;;;;5049913;28;20043;-67
2021/06/13 09:25:44;;;;;;;10.27;4.03;;;;;;;;;;5050392;28;20053;-67
2021/06/13 09:28:09;;;;;;;10.60;3.88;;;;;;;;;;5048947;28;20108;-67
2021/06/13 09:30:36;;;;;;;14.55;4.43;;;;;;;;;;5050000;28;20024;-67
2021/06/13 09:33:07;;;;;;;8.98;3.78;;;;;;;;;;5052018;28;20096;-67
2021/06/13 09:35:32;;;;;;;18.98;3.80;;;;;;;;;;5047827;28;20032;-67
2021/06/13 09:38:18;;;;;;;16.77;3.88;;;;;;;;;;5052074;28;20356;-67
2021/06/13 09:41:07;;;;;;;10.88;4.65;;;;;;;;;;5052451;28;20027;-67
2021/06/13 09:43:35;;;;;;;10.20;3.47;;;;;;;;;;5039773;28;20056;-67
2021/06/13 09:46:07;;;;;;;12.60;4.40;;;;;;;;;;5051893;28;20060;-67
2021/06/13 09:48:33;;;;;;;16.45;4.88;;;;;;;;;;5051966;28;20494;-67
2021/06/13 09:51:01;;;;;;;13.68;3.53;;;;;;;;;;5052310;28;20068;-67
2021/06/13 09:53:28;;;;;;;15.23;4.75;;;;;;;;;;5052148;28;20044;-66
2021/06/13 09:56:00;;;;;;;14.50;4.30;;;;;;;;;;5049839;28;20696;-66
2021/06/13 09:58:25;;;;;;;10.15;4.03;;;;;;;;;;5043021;28;20017;-66
2021/06/13 10:00:50;;;;;;;16.50;4.10;;;;;;;;;;5052593;28;20528;-66
2021/06/13 10:03:20;;;;;;;11.97;4.20;;;;;;;;;;5051518;28;20351;-66
2021/06/13 10:05:55;;;;;;;15.65;5.18;;;;;;;;;;5052213;28;20399;-67
2021/06/13 10:08:20;;;;;;;13.07;4.35;;;;;;;;;;5052010;28;20017;-66
2021/06/13 10:10:45;;;;;;;14.50;4.70;;;;;;;;;;5052481;28;20013;-66
2021/06/13 10:13:10;;;;;;;14.67;4.20;;;;;;;;;;5051510;28;20346;-65
2021/06/13 10:15:36;;;;;;;10.13;4.07;;;;;;;;;;5051157;28;20267;-68
2021/06/13 10:18:10;;;;;;;11.57;4.63;;;;;;;;;;5051831;28;20271;-67
2021/06/13 10:20:36;;;;;;;14.00;3.42;;;;;;;;;;5051469;28;20021;-68
2021/06/13 10:23:01;;;;;;;16.63;4.27;;;;;;;;;;5033975;28;20013;-65
2021/06/13 10:25:26;;;;;;;12.07;4.30;;;;;;;;;;5034544;28;20324;-66
2021/06/13 10:27:51;;;;;;;15.10;4.67;;;;;;;;;;5051480;28;20025;-65
2021/06/13 10:30:17;;;;;;;16.87;4.80;;;;;;;;;;5051270;28;20306;-65
2021/06/13 10:32:42;;;;;;;11.35;4.82;;;;;;;;;;5051399;28;20267;-65
2021/06/13 10:35:07;;;;;;;15.80;4.77;;;;;;;;;;5050882;28;20024;-65
2021/06/13 10:37:33;;;;;;;14.93;3.78;;;;;;;;;;5050821;28;20100;-65
2021/06/13 10:39:58;;;;;;;12.45;3.83;;;;;;;;;;5051203;28;20024;-65
2021/06/13 10:42:24;;;;;;;16.73;4.60;;;;;;;;;;5051139;28;20364;-65
2021/06/13 10:44:51;;;;;;;21.45;14.40;;;;;;;;;;5051321;28;20052;-66
2021/06/13 10:47:16;;;;;;;16.95;5.88;;;;;;;;;;5050561;28;20092;-65
2021/06/13 10:49:47;;;;;;;53.45;28.52;;;;;;;;;;5050362;28;20029;-65
2021/06/13 10:52:17;;;;;;;6.65;4.10;;;;;;;;;;5051005;28;20032;-65
2021/06/13 10:54:49;;;;;;;8.05;3.45;;;;;;;;;;5050165;28;20050;-65
2021/06/13 10:57:14;;;;;;;17.52;4.60;;;;;;;;;;5045779;28;20025;-66
2021/06/13 10:59:40;;;;;;;10.63;3.90;;;;;;;;;;5051047;28;20481;-65
2021/06/13 11:02:11;;;;;;;11.32;4.43;;;;;;;;;;5051769;28;20032;-65
2021/06/13 11:04:42;;;;;;;10.35;4.03;;;;;;;;;;5050576;28;20391;-65
2021/06/13 11:07:07;;;;;;;17.83;4.05;;;;;;;;;;5050636;28;20078;-66
2021/06/13 11:09:33;;;;;;;10.38;3.70;;;;;;;;;;5050153;28;20430;-66
2021/06/13 11:11:58;;;;;;;15.20;3.93;;;;;;;;;;5049935;28;20056;-65
2021/06/13 11:14:28;;;;;;;12.73;4.10;;;;;;;;;;5050496;28;20279;-65
2021/06/13 11:16:54;;;;;;;8.40;3.47;;;;;;;;;;5050855;28;20037;-66
2021/06/13 11:19:23;;;;;;;8.40;3.60;;;;;;;;;;5050575;28;20083;-65
2021/06/13 11:21:49;;;;;;;14.63;4.60;;;;;;;;;;5050685;28;20024;-65
2021/06/13 11:24:34;;;;;;;17.77;4.40;;;;;;;;;;5050651;28;20021;-65
2021/06/13 11:27:03;;;;;;;18.48;4.28;;;;;;;;;;5050920;28;20672;-65
2021/06/13 11:29:48;;;;;;;15.93;3.90;;;;;;;;;;5050821;28;20028;-65
2021/06/13 11:32:13;;;;;;;11.75;3.88;;;;;;;;;;5048348;28;20494;-66
2021/06/13 11:34:46;;;;;;;16.90;4.57;;;;;;;;;;5050623;28;20024;-66
2021/06/13 11:37:20;;;;;;;16.85;4.30;;;;;;;;;;5042831;28;20256;-66
2021/06/13 11:39:53;;;;;;;18.67;3.60;;;;;;;;;;5047449;28;20067;-67
2021/06/13 11:42:18;;;;;;;9.85;4.43;;;;;;;;;;5048521;28;20055;-66
2021/06/13 11:44:45;;;;;;;10.50;3.33;;;;;;;;;;5049855;28;20021;-66
2021/06/13 11:47:21;;;;;;;16.52;4.05;;;;;;;;;;5036888;28;20260;-66
2021/06/13 11:49:47;;;;;;;11.02;4.10;;;;;;;;;;5012471;28;20491;-66
2021/06/13 11:52:12;;;;;;;6.10;3.53;;;;;;;;;;5046644;28;20390;-66
2021/06/13 11:54:45;;;;;;;9.40;4.07;;;;;;;;;;5049757;28;20036;-66
2021/06/13 11:57:13;;;;;;;14.60;4.90;;;;;;;;;;5044323;28;20368;-66
2021/06/13 11:59:39;;;;;;;14.88;4.43;;;;;;;;;;5049292;28;20070;-65
2021/06/13 12:02:05;;;;;;;13.40;3.85;;;;;;;;;;5049546;28;20013;-67
2021/06/13 12:04:31;;;;;;;10.10;4.07;;;;;;;;;;5048165;28;20482;-67
2021/06/13 12:06:58;;;;;;;15.02;4.22;;;;;;;;;;5049092;28;20056;-67
2021/06/13 12:09:24;;;;;;;7.57;3.15;;;;;;;;;;5049722;28;20029;-67
2021/06/13 12:11:53;;;;;;;11.18;4.10;;;;;;;;;;5049101;28;20029;-67
2021/06/13 12:14:27;;;;;;;8.80;3.90;;;;;;;;;;5048254;28;20394;-68
2021/06/13 12:17:00;;;;;;;17.20;6.13;;;;;;;;;;5049683;28;20025;-67
2021/06/13 12:19:30;;;;;;;11.75;3.83;;;;;;;;;;5050036;28;20147;-68
2021/06/13 12:21:55;;;;;;;;;;;;;;;;;;5051151;28;20656;-68
2021/06/13 12:27:26;;;;;;;10.23;3.78;;;;;;;;;;5052392;28;20113;-67
2021/06/13 12:29:44;;;;;;;14.02;4.03;;;;;;;;;;5049994;28;20542;-68
2021/06/13 12:32:12;;;;;;;14.20;4.03;;;;;;;;;;5054012;28;20021;-68
2021/06/13 12:34:38;;;;;;;9.82;3.72;;;;;;;;;;5053403;28;20028;-67
2021/06/13 12:37:05;;;;;;;9.10;3.43;;;;;;;;;;5053534;28;20490;-68
2021/06/13 12:39:30;;;;;;;8.70;3.10;;;;;;;;;;5053409;28;20021;-67
2021/06/13 12:42:09;;;;;;;11.97;3.47;;;;;;;;;;5053518;28;20024;-66
2021/06/13 12:44:35;;;;;;;10.30;3.53;;;;;;;;;;5052751;28;20090;-68
2021/06/13 12:47:01;;;;;;;10.60;2.95;;;;;;;;;;5046622;28;20026;-68
2021/06/13 12:49:37;;;;;;;11.45;3.22;;;;;;;;;;5044594;28;20032;-66
2021/06/13 12:52:12;;;;;;;8.18;2.97;;;;;;;;;;5049282;28;20025;-68
2021/06/13 12:54:37;;;;;;;17.05;3.97;;;;;;;;;;5049033;28;20048;-68
2021/06/13 12:57:03;;;;;;;13.63;4.00;;;;;;;;;;5048476;28;20487;-67
2021/06/13 12:59:28;;;;;;;6.47;3.15;;;;;;;;;;5042795;28;20259;-68
2021/06/13 13:01:53;;;;;;;12.52;3.63;;;;;;;;;;5052471;28;20075;-66
2021/06/13 13:04:37;;;;;;;8.87;3.30;;;;;;;;;;5052762;28;20029;-68
2021/06/13 13:07:02;;;;;;;17.23;3.78;;;;;;;;;;5052422;28;20811;-68
2021/06/13 13:09:28;;;;;;;9.25;3.70;;;;;;;;;;5052412;28;20029;-69
2021/06/13 13:11:53;;;;;;;11.40;3.40;;;;;;;;;;5049957;28;20113;-69
2021/06/13 13:14:18;;;;;;;11.00;3.50;;;;;;;;;;5050385;28;20017;-69
2021/06/13 13:16:44;;;;;;;14.98;3.83;;;;;;;;;;5043125;28;20692;-67
2021/06/13 13:19:10;;;;;;;15.13;5.07;;;;;;;;;;5051455;28;20017;-67
2021/06/13 13:21:40;;;;;;;11.32;4.50;;;;;;;;;;5051983;28;20255;-67
2021/06/13 13:24:07;;;;;;;9.52;3.67;;;;;;;;;;5052100;28;20025;-66
2021/06/13 13:26:33;;;;;;;17.55;5.50;;;;;;;;;;5052109;28;20028;-66
2021/06/13 13:28:58;;;;;;;8.80;4.00;;;;;;;;;;5052663;28;20063;-67
2021/06/13 13:31:28;;;;;;;9.05;3.42;;;;;;;;;;5051818;28;20098;-67
2021/06/13 13:33:54;;;;;;;10.45;3.47;;;;;;;;;;5046461;28;20548;-67
2021/06/13 13:36:39;;;;;;;7.57;3.05;;;;;;;;;;5051711;28;20059;-67
2021/06/13 13:39:12;;;;;;;7.88;3.13;;;;;;;;;;5052071;28;20025;-67
2021/06/13 13:41:39;;;;;;;6.82;2.85;;;;;;;;;;5052297;28;20075;-67
2021/06/13 13:44:08;;;;;;;9.88;3.35;;;;;;;;;;5051743;28;20091;-67
2021/06/13 13:46:33;;;;;;;11.20;3.42;;;;;;;;;;5035650;28;20079;-67
2021/06/13 13:48:59;;;;;;;12.20;3.63;;;;;;;;;;5047478;28;20021;-68
2021/06/13 13:51:25;;;;;;;16.10;3.45;;;;;;;;;;5050601;28;20502;-65
2021/06/13 13:53:52;;;;;;;9.80;2.83;;;;;;;;;;5048989;28;20029;-66
2021/06/13 13:56:21;;;;;;;14.35;2.53;;;;;;;;;;5057476;28;20455;-75
2021/06/13 13:58:48;;;;;;;7.07;3.38;;;;;;;;;;5050441;28;20032;-67
2021/06/13 14:01:13;;;;;;;9.70;3.40;;;;;;;;;;5049522;28;20070;-64
2021/06/13 14:03:38;;;;;;;9.00;3.70;;;;;;;;;;5046265;28;20382;-65
2021/06/13 14:06:04;;;;;;;7.90;2.83;;;;;;;;;;5051521;28;20021;-66
2021/06/13 14:08:39;;;;;;;8.52;2.90;;;;;;;;;;5051208;28;20025;-67
2021/06/13 14:11:04;;;;;;;9.93;3.85;;;;;;;;;;5051035;28;20029;-65
2021/06/13 14:13:30;;;;;;;10.93;3.23;;;;;;;;;;5051178;28;20370;-70
2021/06/13 14:15:55;;;;;;;9.13;3.10;;;;;;;;;;5048257;28;20286;-65
2021/06/13 14:18:20;;;;;;;9.93;3.33;;;;;;;;;;5050693;28;20051;-67
2021/06/13 14:20:45;;;;;;;13.63;3.27;;;;;;;;;;5051124;28;20278;-65
2021/06/13 14:23:10;;;;;;;10.68;3.03;;;;;;;;;;5053426;28;20067;-66
2021/06/13 14:25:36;;;;;;;5.68;3.10;;;;;;;;;;5066820;28;20538;-65
2021/06/13 14:28:02;;;;;;;12.98;4.70;;;;;;;;;;5032401;28;21227;-68
2021/06/13 14:30:28;;;;;;;7.63;2.72;;;;;;;;;;5051299;28;20025;-65
2021/06/13 14:32:53;;;;;;;8.27;3.45;;;;;;;;;;5051719;28;20031;-66
2021/06/13 14:35:19;;;;;;;5.88;2.47;;;;;;;;;;5044828;28;20095;-67